createdAt,value
2024-02-02T00:00:11.748Z,4.62
2024-02-02T00:01:11.759Z,4.62
2024-02-02T00:02:11.707Z,4.62
2024-02-02T00:03:11.748Z,4.60
2024-02-02T00:04:11.699Z,4.60
2024-02-02T00:05:11.684Z,4.58
2024-02-02T00:06:11.680Z,4.58
2024-02-02T00:07:11.647Z,4.59
2024-02-02T00:08:11.651Z,4.54
2024-02-02T00:09:11.722Z,4.52
2024-02-02T00:10:11.627Z,4.52
2024-02-02T00:11:11.626Z,4.50
2024-02-02T00:12:11.646Z,4.50
2024-02-02T00:13:11.613Z,4.48
2024-02-02T00:14:11.568Z,4.50
2024-02-02T00:15:11.598Z,4.50
2024-02-02T00:16:11.551Z,4.50
2024-02-02T00:17:11.514Z,4.47
2024-02-02T00:18:11.605Z,4.47
2024-02-02T00:19:11.743Z,4.48
2024-02-02T00:20:11.660Z,4.50
2024-02-02T00:21:11.524Z,4.50
2024-02-02T00:22:11.499Z,4.50
2024-02-02T00:23:11.470Z,4.48
2024-02-02T00:24:11.545Z,4.50
2024-02-02T00:25:11.438Z,4.51
2024-02-02T00:26:11.456Z,4.51
2024-02-02T00:27:11.423Z,4.52
2024-02-02T00:28:11.413Z,4.52
2024-02-02T00:29:11.413Z,4.54
2024-02-02T00:30:11.433Z,4.54
2024-02-02T00:31:11.386Z,4.58
2024-02-02T00:32:11.395Z,4.55
2024-02-02T00:33:11.479Z,4.58
2024-02-02T00:34:11.435Z,4.58
2024-02-02T00:35:11.386Z,4.59
2024-02-02T00:36:11.369Z,4.59
2024-02-02T00:37:11.325Z,4.60
2024-02-02T00:38:11.327Z,4.60
2024-02-02T00:39:11.331Z,4.60
2024-02-02T00:40:11.304Z,4.62
2024-02-02T00:41:11.793Z,4.60
2024-02-02T00:42:11.302Z,4.59
2024-02-02T00:43:11.281Z,4.58
2024-02-02T00:44:11.248Z,4.55
2024-02-02T00:45:11.304Z,4.59
2024-02-02T00:46:11.263Z,4.58
2024-02-02T00:47:11.228Z,4.58
2024-02-02T00:48:11.294Z,4.55
2024-02-02T00:49:11.256Z,4.58
2024-02-02T00:50:11.267Z,4.52
2024-02-02T00:51:11.257Z,4.54
2024-02-02T00:52:11.160Z,4.51
2024-02-02T00:53:11.167Z,4.51
2024-02-02T00:54:11.184Z,4.50
2024-02-02T00:55:11.160Z,4.48
2024-02-02T00:56:11.306Z,4.50
2024-02-02T00:57:11.175Z,4.51
2024-02-02T00:58:11.110Z,4.48
2024-02-02T00:59:11.127Z,4.48
2024-02-02T01:00:11.162Z,4.48
2024-02-02T01:01:11.105Z,4.47
2024-02-02T01:02:11.099Z,4.47
2024-02-02T01:03:11.104Z,4.45
2024-02-02T01:04:11.127Z,4.44
2024-02-02T01:05:11.068Z,4.45
2024-02-02T01:06:11.066Z,4.42
2024-02-02T01:07:11.078Z,4.45
2024-02-02T01:08:11.023Z,4.44
2024-02-02T01:09:10.985Z,4.44
2024-02-02T01:10:10.961Z,4.45
2024-02-02T01:11:10.965Z,4.42
2024-02-02T01:12:11.013Z,4.44
2024-02-02T01:13:10.991Z,4.42
2024-02-02T01:14:10.959Z,4.41
2024-02-02T01:15:10.908Z,4.42
2024-02-02T01:16:10.918Z,4.42
2024-02-02T01:17:10.891Z,4.42
2024-02-02T01:18:10.955Z,4.42
2024-02-02T01:19:11.106Z,4.40
2024-02-02T01:20:10.878Z,4.42
2024-02-02T01:21:10.875Z,4.42
2024-02-02T01:22:10.828Z,4.42
2024-02-02T01:23:10.822Z,4.42
2024-02-02T01:24:10.886Z,4.42
2024-02-02T01:25:10.883Z,4.41
2024-02-02T01:26:10.794Z,4.45
2024-02-02T01:27:10.798Z,4.42
2024-02-02T01:28:10.769Z,4.42
2024-02-02T01:29:10.743Z,4.44
2024-02-02T01:30:10.780Z,4.44
2024-02-02T01:31:10.809Z,4.44
2024-02-02T01:32:10.747Z,4.44
2024-02-02T01:33:10.789Z,4.42
2024-02-02T01:34:10.907Z,4.41
2024-02-02T01:35:10.726Z,4.42
2024-02-02T01:36:10.760Z,4.45
2024-02-02T01:37:10.681Z,4.44
2024-02-02T01:38:10.670Z,4.45
2024-02-02T01:39:10.661Z,4.42
2024-02-02T01:40:10.622Z,4.44
2024-02-02T01:41:10.672Z,4.42
2024-02-02T01:42:10.679Z,4.44
2024-02-02T01:43:10.607Z,4.42
2024-02-02T01:44:10.592Z,4.45
2024-02-02T01:45:16.632Z,4.42
2024-02-02T01:46:10.562Z,4.45
2024-02-02T01:47:10.595Z,4.44
2024-02-02T01:48:10.785Z,4.44
2024-02-02T01:49:10.660Z,4.44
2024-02-02T01:50:10.574Z,4.42
2024-02-02T01:51:10.551Z,4.44
2024-02-02T01:52:10.496Z,4.44
2024-02-02T01:53:10.494Z,4.42
2024-02-02T01:54:10.553Z,4.45
2024-02-02T01:55:10.472Z,4.47
2024-02-02T01:56:10.447Z,4.45
2024-02-02T01:57:10.481Z,4.47
2024-02-02T01:58:10.429Z,4.45
2024-02-02T01:59:10.461Z,4.48
2024-02-02T02:00:10.488Z,4.48
2024-02-02T02:01:10.421Z,4.48
2024-02-02T02:02:10.378Z,4.48
2024-02-02T02:03:10.460Z,4.48
2024-02-02T02:04:10.468Z,4.48
2024-02-02T02:05:10.372Z,4.44
2024-02-02T02:06:10.511Z,4.45
2024-02-02T02:07:10.402Z,4.50
2024-02-02T02:08:10.344Z,4.50
2024-02-02T02:09:10.387Z,4.47
2024-02-02T02:10:10.342Z,4.48
2024-02-02T02:11:10.317Z,4.50
2024-02-02T02:12:10.380Z,4.50
2024-02-02T02:13:10.295Z,4.50
2024-02-02T02:14:10.275Z,4.50
2024-02-02T02:15:10.297Z,4.48
2024-02-02T02:16:10.269Z,4.50
2024-02-02T02:17:10.225Z,4.47
2024-02-02T02:18:10.347Z,4.50
2024-02-02T02:19:10.363Z,4.51
2024-02-02T02:20:10.228Z,4.47
2024-02-02T02:21:10.281Z,4.50
2024-02-02T02:22:10.197Z,4.51
2024-02-02T02:23:10.162Z,4.48
2024-02-02T02:24:10.224Z,4.48
2024-02-02T02:25:10.152Z,4.51
2024-02-02T02:26:10.140Z,4.51
2024-02-02T02:27:10.179Z,4.51
2024-02-02T02:28:10.125Z,4.51
2024-02-02T02:29:10.118Z,4.51
2024-02-02T02:30:10.173Z,4.51
2024-02-02T02:31:10.099Z,4.52
2024-02-02T02:32:10.095Z,4.51
2024-02-02T02:33:10.161Z,4.52
2024-02-02T02:34:10.140Z,4.51
2024-02-02T02:35:10.083Z,4.50
2024-02-02T02:36:10.104Z,4.51
2024-02-02T02:37:10.016Z,4.51
2024-02-02T02:38:10.031Z,4.50
2024-02-02T02:39:10.040Z,4.50
2024-02-02T02:40:10.086Z,4.50
2024-02-02T02:41:10.048Z,4.48
2024-02-02T02:42:10.009Z,4.47
2024-02-02T02:43:10.002Z,4.48
2024-02-02T02:44:09.956Z,4.47
2024-02-02T02:45:09.971Z,4.44
2024-02-02T02:46:09.930Z,4.47
2024-02-02T02:47:09.959Z,4.45
2024-02-02T02:48:10.060Z,4.47
2024-02-02T02:49:10.004Z,4.47
2024-02-02T02:50:09.904Z,4.47
2024-02-02T02:51:09.899Z,4.50
2024-02-02T02:52:09.878Z,4.48
2024-02-02T02:53:09.882Z,4.44
2024-02-02T02:54:09.878Z,4.45
2024-02-02T02:55:09.850Z,4.44
2024-02-02T02:56:09.841Z,4.44
2024-02-02T02:57:09.826Z,4.42
2024-02-02T02:58:09.848Z,4.44
2024-02-02T02:59:09.804Z,4.41
2024-02-02T03:00:09.837Z,4.45
2024-02-02T03:01:09.852Z,4.42
2024-02-02T03:02:09.772Z,4.42
2024-02-02T03:03:09.780Z,4.42
2024-02-02T03:04:09.764Z,4.44
2024-02-02T03:05:09.729Z,4.44
2024-02-02T03:06:09.834Z,4.42
2024-02-02T03:07:09.912Z,4.42
2024-02-02T03:08:09.719Z,4.45
2024-02-02T03:09:09.755Z,4.47
2024-02-02T03:10:09.691Z,4.47
2024-02-02T03:11:09.664Z,4.45
2024-02-02T03:12:09.726Z,4.44
2024-02-02T03:13:09.661Z,4.45
2024-02-02T03:14:09.646Z,4.44
2024-02-02T03:15:09.668Z,4.47
2024-02-02T03:16:09.622Z,4.45
2024-02-02T03:17:09.634Z,4.45
2024-02-02T03:18:09.675Z,4.45
2024-02-02T03:19:09.689Z,4.45
2024-02-02T03:20:09.645Z,4.44
2024-02-02T03:21:09.616Z,4.44
2024-02-02T03:22:09.562Z,4.41
2024-02-02T03:23:09.569Z,4.41
2024-02-02T03:24:09.589Z,4.42
2024-02-02T03:25:09.514Z,4.45
2024-02-02T03:26:09.538Z,4.40
2024-02-02T03:27:09.569Z,4.44
2024-02-02T03:28:09.489Z,4.42
2024-02-02T03:29:09.501Z,4.41
2024-02-02T03:30:09.505Z,4.42
2024-02-02T03:31:09.450Z,4.42
2024-02-02T03:32:09.433Z,4.41
2024-02-02T03:33:09.686Z,4.45
2024-02-02T03:34:09.531Z,4.42
2024-02-02T03:35:09.427Z,4.42
2024-02-02T03:36:09.412Z,4.42
2024-02-02T03:37:09.403Z,4.45
2024-02-02T03:38:09.386Z,4.44
2024-02-02T03:39:09.453Z,4.45
2024-02-02T03:40:09.374Z,4.45
2024-02-02T03:41:09.365Z,4.45
2024-02-02T03:42:09.407Z,4.44
2024-02-02T03:43:09.362Z,4.44
2024-02-02T03:44:09.302Z,4.42
2024-02-02T03:45:09.365Z,4.41
2024-02-02T03:46:09.291Z,4.41
2024-02-02T03:47:09.280Z,4.44
2024-02-02T03:48:09.439Z,4.45
2024-02-02T03:49:09.542Z,4.44
2024-02-02T03:50:09.371Z,4.47
2024-02-02T03:51:09.245Z,4.45
2024-02-02T03:52:09.252Z,4.45
2024-02-02T03:53:09.237Z,4.45
2024-02-02T03:54:09.244Z,4.45
2024-02-02T03:55:09.215Z,4.44
2024-02-02T03:56:09.217Z,4.45
2024-02-02T03:57:09.220Z,4.44
2024-02-02T03:58:09.178Z,4.44
2024-02-02T03:59:09.182Z,4.44
2024-02-02T04:00:09.220Z,4.44
2024-02-02T04:01:09.166Z,4.42
2024-02-02T04:02:09.121Z,4.42
2024-02-02T04:03:09.193Z,4.42
2024-02-02T04:04:09.275Z,4.41
2024-02-02T04:05:09.125Z,4.44
2024-02-02T04:06:09.134Z,4.41
2024-02-02T04:07:09.098Z,4.41
2024-02-02T04:08:09.100Z,4.41
2024-02-02T04:09:09.108Z,4.41
2024-02-02T04:10:09.037Z,4.41
2024-02-02T04:11:09.070Z,4.42
2024-02-02T04:12:09.051Z,4.40
2024-02-02T04:13:09.029Z,4.40
2024-02-02T04:14:08.991Z,4.37
2024-02-02T04:15:09.041Z,4.40
2024-02-02T04:16:08.971Z,4.37
2024-02-02T04:17:08.983Z,4.40
2024-02-02T04:18:09.160Z,4.36
2024-02-02T04:19:09.040Z,4.37
2024-02-02T04:20:08.934Z,4.40
2024-02-02T04:21:08.994Z,4.34
2024-02-02T04:22:08.927Z,4.36
2024-02-02T04:23:08.914Z,4.36
2024-02-02T04:24:08.958Z,4.34
2024-02-02T04:25:08.932Z,4.36
2024-02-02T04:26:08.904Z,4.40
2024-02-02T04:27:08.936Z,4.40
2024-02-02T04:28:08.861Z,4.36
2024-02-02T04:29:08.851Z,4.40
2024-02-02T04:30:08.854Z,4.40
2024-02-02T04:31:08.836Z,4.37
2024-02-02T04:32:08.844Z,4.37
2024-02-02T04:33:08.976Z,4.33
2024-02-02T04:34:08.963Z,4.33
2024-02-02T04:35:08.767Z,4.34
2024-02-02T04:36:08.839Z,4.34
2024-02-02T04:37:08.774Z,4.37
2024-02-02T04:38:08.774Z,4.34
2024-02-02T04:39:08.758Z,4.36
2024-02-02T04:40:08.726Z,4.36
2024-02-02T04:41:08.720Z,4.34
2024-02-02T04:42:08.761Z,4.37
2024-02-02T04:43:08.758Z,4.36
2024-02-02T04:44:08.689Z,4.36
2024-02-02T04:45:08.713Z,4.36
2024-02-02T04:46:08.682Z,4.34
2024-02-02T04:47:08.668Z,4.36
2024-02-02T04:48:08.807Z,4.36
2024-02-02T04:49:08.821Z,4.36
2024-02-02T04:50:08.642Z,4.33
2024-02-02T04:51:08.696Z,4.37
2024-02-02T04:52:08.610Z,4.40
2024-02-02T04:53:08.576Z,4.41
2024-02-02T04:54:08.593Z,4.40
2024-02-02T04:55:08.578Z,4.37
2024-02-02T04:56:08.566Z,4.37
2024-02-02T04:57:08.674Z,4.37
2024-02-02T04:58:08.547Z,4.37
2024-02-02T04:59:08.556Z,4.37
2024-02-02T05:00:08.518Z,4.33
2024-02-02T05:01:08.499Z,4.34
2024-02-02T05:02:08.543Z,4.36
2024-02-02T05:03:08.650Z,4.37
2024-02-02T05:04:08.520Z,4.37
2024-02-02T05:05:08.503Z,4.40
2024-02-02T05:06:08.499Z,4.37
2024-02-02T05:07:08.472Z,4.37
2024-02-02T05:08:08.495Z,4.40
2024-02-02T05:09:08.471Z,4.37
2024-02-02T05:10:08.430Z,4.37
2024-02-02T05:11:08.418Z,4.41
2024-02-02T05:12:08.394Z,4.37
2024-02-02T05:13:08.434Z,4.41
2024-02-02T05:14:08.382Z,4.37
2024-02-02T05:15:08.442Z,4.37
2024-02-02T05:16:08.408Z,4.40
2024-02-02T05:17:08.333Z,4.41
2024-02-02T05:18:08.730Z,4.41
2024-02-02T05:19:08.400Z,4.40
2024-02-02T05:20:08.298Z,4.40
2024-02-02T05:21:08.370Z,4.41
2024-02-02T05:22:08.296Z,4.42
2024-02-02T05:23:08.280Z,4.40
2024-02-02T05:24:21.705Z,4.41
2024-02-02T05:25:08.305Z,4.37
2024-02-02T05:26:08.961Z,4.40
2024-02-02T05:27:08.260Z,4.41
2024-02-02T05:28:08.234Z,4.41
2024-02-02T05:29:08.201Z,4.41
2024-02-02T05:30:08.353Z,4.40
2024-02-02T05:31:08.183Z,4.40
2024-02-02T05:32:08.208Z,4.41
2024-02-02T05:33:08.339Z,4.42
2024-02-02T05:34:08.248Z,4.44
2024-02-02T05:35:08.261Z,4.42
2024-02-02T05:36:08.176Z,4.40
2024-02-02T05:37:08.134Z,4.42
2024-02-02T05:38:08.145Z,4.42
2024-02-02T05:39:08.145Z,4.42
2024-02-02T05:40:08.084Z,4.42
2024-02-02T05:41:08.116Z,4.42
2024-02-02T05:42:08.171Z,4.37
2024-02-02T05:43:08.066Z,4.41
2024-02-02T05:44:08.053Z,4.42
2024-02-02T05:45:08.082Z,4.42
2024-02-02T05:46:08.321Z,4.42
2024-02-02T05:47:08.078Z,4.42
2024-02-02T05:48:08.099Z,4.44
2024-02-02T05:49:08.194Z,4.45
2024-02-02T05:50:08.366Z,4.45
2024-02-02T05:51:08.161Z,4.44
2024-02-02T05:52:07.988Z,4.45
2024-02-02T05:53:08.005Z,4.44
2024-02-02T05:54:08.033Z,4.45
2024-02-02T05:55:07.950Z,4.44
2024-02-02T05:56:07.933Z,4.44
2024-02-02T05:57:08.004Z,4.44
2024-02-02T05:58:07.970Z,4.42
2024-02-02T05:59:08.973Z,4.44
2024-02-02T06:00:08.066Z,4.41
2024-02-02T06:01:07.936Z,4.44
2024-02-02T06:02:07.925Z,4.42
2024-02-02T06:03:08.000Z,4.44
2024-02-02T06:04:08.043Z,4.42
2024-02-02T06:05:07.845Z,4.44
2024-02-02T06:06:07.878Z,4.44
2024-02-02T06:07:07.967Z,4.45
2024-02-02T06:08:07.884Z,4.47
2024-02-02T06:09:07.878Z,4.45
2024-02-02T06:10:07.808Z,4.47
2024-02-02T06:11:07.771Z,4.45
2024-02-02T06:12:07.765Z,4.47
2024-02-02T06:13:07.736Z,4.45
2024-02-02T06:14:07.766Z,4.47
2024-02-02T06:15:07.758Z,4.45
2024-02-02T06:16:07.745Z,4.48
2024-02-02T06:17:07.726Z,4.47
2024-02-02T06:18:07.824Z,4.45
2024-02-02T06:19:07.766Z,4.47
2024-02-02T06:20:07.810Z,4.48
2024-02-02T06:21:07.678Z,4.48
2024-02-02T06:22:07.645Z,4.48
2024-02-02T06:23:07.646Z,4.48
2024-02-02T06:24:07.636Z,4.47
2024-02-02T06:25:07.629Z,4.48
2024-02-02T06:26:07.617Z,4.48
2024-02-02T06:27:07.628Z,4.50
2024-02-02T06:28:07.579Z,4.50
2024-02-02T06:29:07.586Z,4.48
2024-02-02T06:30:07.610Z,4.50
2024-02-02T06:31:07.572Z,4.52
2024-02-02T06:32:07.588Z,4.52
2024-02-02T06:33:07.575Z,4.51
2024-02-02T06:34:07.681Z,4.52
2024-02-02T06:35:07.571Z,4.52
2024-02-02T06:36:07.526Z,4.52
2024-02-02T06:37:07.483Z,4.54
2024-02-02T06:38:07.480Z,4.54
2024-02-02T06:39:07.479Z,4.54
2024-02-02T06:40:07.462Z,4.54
2024-02-02T06:41:07.453Z,4.54
2024-02-02T06:42:07.492Z,4.55
2024-02-02T06:43:07.429Z,4.55
2024-02-02T06:44:07.423Z,4.58
2024-02-02T06:45:07.440Z,4.55
2024-02-02T06:46:07.405Z,4.58
2024-02-02T06:47:07.387Z,4.58
2024-02-02T06:48:07.478Z,4.58
2024-02-02T06:49:07.498Z,4.58
2024-02-02T06:50:07.428Z,4.55
2024-02-02T06:51:07.406Z,4.58
2024-02-02T06:52:07.321Z,4.60
2024-02-02T06:53:07.303Z,4.58
2024-02-02T06:54:07.369Z,4.60
2024-02-02T06:55:07.285Z,4.55
2024-02-02T06:56:07.331Z,4.58
2024-02-02T06:57:07.296Z,4.58
2024-02-02T06:58:07.275Z,4.60
2024-02-02T06:59:07.298Z,4.59
2024-02-02T07:00:07.388Z,4.60
2024-02-02T07:01:07.435Z,4.62
2024-02-02T07:02:07.225Z,4.60
2024-02-02T07:03:07.268Z,4.62
2024-02-02T07:04:07.326Z,4.62
2024-02-02T07:05:07.222Z,4.62
2024-02-02T07:06:07.322Z,4.63
2024-02-02T07:07:07.262Z,4.65
2024-02-02T07:08:07.175Z,4.63
2024-02-02T07:09:07.170Z,4.65
2024-02-02T07:10:07.153Z,4.65
2024-02-02T07:11:07.134Z,4.65
2024-02-02T07:12:07.172Z,4.66
2024-02-02T07:13:07.099Z,4.66
2024-02-02T07:14:07.095Z,4.65
2024-02-02T07:15:07.182Z,4.67
2024-02-02T07:16:07.077Z,4.63
2024-02-02T07:17:07.068Z,4.66
2024-02-02T07:18:07.134Z,4.66
2024-02-02T07:19:07.118Z,4.67
2024-02-02T07:20:07.095Z,4.66
2024-02-02T07:21:07.060Z,4.65
2024-02-02T07:22:07.030Z,4.66
2024-02-02T07:23:07.014Z,4.66
2024-02-02T07:24:07.020Z,4.65
2024-02-02T07:25:06.988Z,4.66
2024-02-02T07:26:06.988Z,4.63
2024-02-02T07:27:07.017Z,4.67
2024-02-02T07:28:06.975Z,4.66
2024-02-02T07:29:06.940Z,4.66
2024-02-02T07:30:06.969Z,4.67
2024-02-02T07:31:06.908Z,4.69
2024-02-02T07:32:06.930Z,4.66
2024-02-02T07:33:07.005Z,4.69
2024-02-02T07:34:07.017Z,4.67
2024-02-02T07:35:06.924Z,4.67
2024-02-02T07:36:06.906Z,4.66
2024-02-02T07:37:06.876Z,4.67
2024-02-02T07:38:06.847Z,4.65
2024-02-02T07:39:06.865Z,4.65
2024-02-02T07:40:06.837Z,4.67
2024-02-02T07:41:06.829Z,4.66
2024-02-02T07:42:06.814Z,4.66
2024-02-02T07:43:06.816Z,4.66
2024-02-02T07:44:06.820Z,4.67
2024-02-02T07:45:06.892Z,4.69
2024-02-02T07:46:10.669Z,4.70
2024-02-02T07:47:06.835Z,4.67
2024-02-02T07:48:06.849Z,4.73
2024-02-02T07:49:06.816Z,4.72
2024-02-02T07:50:06.733Z,4.75
2024-02-02T07:51:06.742Z,4.75
2024-02-02T07:52:06.711Z,4.75
2024-02-02T07:53:06.678Z,4.78
2024-02-02T07:54:06.705Z,4.77
2024-02-02T07:55:06.686Z,4.75
2024-02-02T07:56:06.673Z,4.78
2024-02-02T07:57:06.641Z,4.80
2024-02-02T07:58:06.706Z,4.80
2024-02-02T07:59:06.624Z,4.82
2024-02-02T08:00:06.666Z,4.82
2024-02-02T08:01:06.705Z,4.84
2024-02-02T08:02:06.643Z,4.85
2024-02-02T08:03:06.578Z,4.86
2024-02-02T08:04:06.783Z,4.91
2024-02-02T08:05:06.603Z,4.91
2024-02-02T08:06:06.717Z,4.94
2024-02-02T08:07:06.647Z,4.94
2024-02-02T08:08:06.518Z,4.96
2024-02-02T08:09:06.548Z,4.94
2024-02-02T08:10:06.510Z,4.94
2024-02-02T08:11:06.560Z,4.94
2024-02-02T08:12:06.516Z,4.96
2024-02-02T08:13:06.475Z,4.94
2024-02-02T08:14:06.476Z,4.94
2024-02-02T08:15:06.499Z,4.96
2024-02-02T08:16:06.432Z,4.99
2024-02-02T08:17:06.449Z,4.96
2024-02-02T08:18:06.550Z,5.00
2024-02-02T08:19:06.513Z,5.00
2024-02-02T08:20:06.405Z,5.00
2024-02-02T08:21:06.403Z,5.02
2024-02-02T08:22:06.397Z,4.99
2024-02-02T08:23:06.377Z,5.00
2024-02-02T08:24:06.408Z,5.02
2024-02-02T08:25:06.353Z,5.02
2024-02-02T08:26:06.351Z,5.04
2024-02-02T08:27:06.361Z,5.04
2024-02-02T08:28:06.324Z,5.03
2024-02-02T08:29:06.314Z,5.06
2024-02-02T08:30:06.400Z,5.04
2024-02-02T08:31:06.279Z,5.07
2024-02-02T08:32:06.262Z,5.07
2024-02-02T08:33:06.456Z,5.09
2024-02-02T08:34:06.425Z,5.09
2024-02-02T08:35:06.242Z,5.12
2024-02-02T08:36:06.258Z,5.12
2024-02-02T08:37:06.204Z,5.12
2024-02-02T08:38:06.202Z,5.15
2024-02-02T08:39:06.261Z,5.15
2024-02-02T08:40:06.215Z,5.20
2024-02-02T08:41:06.165Z,5.20
2024-02-02T08:42:07.548Z,5.24
2024-02-02T08:43:06.173Z,5.24
2024-02-02T08:44:06.187Z,5.31
2024-02-02T08:45:06.149Z,5.33
2024-02-02T08:46:06.131Z,5.35
2024-02-02T08:47:06.107Z,5.35
2024-02-02T08:48:06.125Z,5.42
2024-02-02T08:49:06.239Z,5.43
2024-02-02T08:50:06.209Z,5.46
2024-02-02T08:51:06.093Z,5.45
2024-02-02T08:52:06.086Z,5.51
2024-02-02T08:53:06.045Z,5.53
2024-02-02T08:54:06.095Z,5.56
2024-02-02T08:55:06.022Z,5.60
2024-02-02T08:56:06.020Z,5.63
2024-02-02T08:57:06.057Z,5.68
2024-02-02T08:58:05.989Z,5.74
2024-02-02T08:59:05.996Z,5.75
2024-02-02T09:00:06.283Z,5.78
2024-02-02T09:01:06.032Z,5.76
2024-02-02T09:02:05.941Z,5.78
2024-02-02T09:03:06.430Z,5.81
2024-02-02T09:04:06.052Z,5.76
2024-02-02T09:05:05.936Z,5.79
2024-02-02T09:06:06.334Z,5.81
2024-02-02T09:07:05.998Z,5.82
2024-02-02T09:08:05.892Z,5.85
2024-02-02T09:09:05.957Z,5.85
2024-02-02T09:10:05.942Z,5.89
2024-02-02T09:11:05.857Z,5.94
2024-02-02T09:12:05.877Z,5.90
2024-02-02T09:13:05.881Z,5.90
2024-02-02T09:14:05.817Z,5.94
2024-02-02T09:15:05.843Z,5.93
2024-02-02T09:16:05.800Z,5.91
2024-02-02T09:17:05.822Z,5.90
2024-02-02T09:18:05.901Z,5.91
2024-02-02T09:19:05.857Z,5.93
2024-02-02T09:20:05.806Z,5.86
2024-02-02T09:21:05.797Z,5.90
2024-02-02T09:22:05.758Z,5.90
2024-02-02T09:23:05.727Z,5.89
2024-02-02T09:24:05.768Z,5.86
2024-02-02T09:25:05.733Z,5.89
2024-02-02T09:26:05.687Z,5.91
2024-02-02T09:27:05.759Z,5.93
2024-02-02T09:28:05.687Z,5.93
2024-02-02T09:29:05.702Z,5.93
2024-02-02T09:30:05.783Z,5.93
2024-02-02T09:31:05.641Z,5.97
2024-02-02T09:32:05.634Z,5.99
2024-02-02T09:33:05.715Z,5.97
2024-02-02T09:34:05.868Z,5.99
2024-02-02T09:35:05.623Z,5.91
2024-02-02T09:36:05.652Z,5.91
2024-02-02T09:37:05.594Z,5.86
2024-02-02T09:38:05.562Z,5.89
2024-02-02T09:39:05.638Z,5.82
2024-02-02T09:40:05.546Z,5.78
2024-02-02T09:41:05.571Z,5.76
2024-02-02T09:42:05.598Z,5.75
2024-02-02T09:43:05.540Z,5.71
2024-02-02T09:44:05.514Z,5.72
2024-02-02T09:45:05.524Z,5.67
2024-02-02T09:46:05.497Z,5.64
2024-02-02T09:47:05.496Z,5.67
2024-02-02T09:48:05.684Z,5.65
2024-02-02T09:49:05.663Z,5.64
2024-02-02T09:50:05.580Z,5.63
2024-02-02T09:51:05.487Z,5.65
2024-02-02T09:52:05.426Z,5.63
2024-02-02T09:53:05.408Z,5.61
2024-02-02T09:54:05.455Z,5.63
2024-02-02T09:55:05.412Z,5.61
2024-02-02T09:56:05.472Z,5.61
2024-02-02T09:57:05.466Z,5.64
2024-02-02T09:58:05.384Z,5.63
2024-02-02T09:59:05.368Z,5.63
2024-02-02T10:00:05.380Z,5.61
2024-02-02T10:01:05.364Z,5.65
2024-02-02T10:02:05.344Z,5.67
2024-02-02T10:03:05.379Z,5.63
2024-02-02T10:04:05.398Z,5.64
2024-02-02T10:05:05.311Z,5.61
2024-02-02T10:06:05.367Z,5.60
2024-02-02T10:07:05.527Z,5.56
2024-02-02T10:08:05.274Z,5.56
2024-02-02T10:09:05.290Z,5.54
2024-02-02T10:10:05.254Z,5.56
2024-02-02T10:11:05.224Z,5.57
2024-02-02T10:12:05.242Z,5.57
2024-02-02T10:13:05.342Z,5.60
2024-02-02T10:14:05.212Z,5.60
2024-02-02T10:15:05.362Z,5.58
2024-02-02T10:16:05.201Z,5.61
2024-02-02T10:17:05.165Z,5.64
2024-02-02T10:18:05.297Z,5.63
2024-02-02T10:19:05.323Z,5.60
2024-02-02T10:20:05.145Z,5.61
2024-02-02T10:21:05.932Z,5.58
2024-02-02T10:22:05.111Z,5.60
2024-02-02T10:23:05.118Z,5.61
2024-02-02T10:24:11.957Z,5.60
2024-02-02T10:25:05.113Z,5.61
2024-02-02T10:26:05.069Z,5.65
2024-02-02T10:27:05.088Z,5.64
2024-02-02T10:28:05.061Z,5.63
2024-02-02T10:29:05.067Z,5.65
2024-02-02T10:30:05.069Z,5.65
2024-02-02T10:31:05.026Z,5.71
2024-02-02T10:32:05.016Z,5.68
2024-02-02T10:33:05.106Z,5.72
2024-02-02T10:34:05.070Z,5.72
2024-02-02T10:35:05.012Z,5.74
2024-02-02T10:36:05.018Z,5.76
2024-02-02T10:37:04.972Z,5.81
2024-02-02T10:38:04.942Z,5.78
2024-02-02T10:39:05.014Z,5.78
2024-02-02T10:40:04.933Z,5.78
2024-02-02T10:41:04.922Z,5.83
2024-02-02T10:42:04.984Z,5.81
2024-02-02T10:43:04.912Z,5.83
2024-02-02T10:44:04.884Z,5.86
2024-02-02T10:45:04.883Z,5.91
2024-02-02T10:46:04.884Z,5.94
2024-02-02T10:47:04.891Z,5.94
2024-02-02T10:48:05.093Z,5.97
2024-02-02T10:49:05.028Z,5.94
2024-02-02T10:50:05.025Z,5.94
2024-02-02T10:51:04.842Z,5.99
2024-02-02T10:52:04.809Z,6.03
2024-02-02T10:53:04.817Z,6.00
2024-02-02T10:54:04.815Z,6.03
2024-02-02T10:55:04.806Z,6.06
2024-02-02T10:56:04.769Z,6.09
2024-02-02T10:57:04.768Z,6.09
2024-02-02T10:58:04.745Z,6.12
2024-02-02T10:59:04.741Z,6.14
2024-02-02T11:00:04.894Z,6.09
2024-02-02T11:01:04.907Z,6.11
2024-02-02T11:02:04.723Z,6.12
2024-02-02T11:03:04.819Z,6.18
2024-02-02T11:04:04.784Z,6.17
2024-02-02T11:05:04.674Z,6.22
2024-02-02T11:06:04.758Z,6.27
2024-02-02T11:07:04.733Z,6.28
2024-02-02T11:08:04.682Z,6.31
2024-02-02T11:09:04.724Z,6.33
2024-02-02T11:10:04.592Z,6.37
2024-02-02T11:11:04.611Z,6.37
2024-02-02T11:12:04.632Z,6.36
2024-02-02T11:13:04.577Z,6.37
2024-02-02T11:14:04.568Z,6.41
2024-02-02T11:15:04.575Z,6.43
2024-02-02T11:16:04.567Z,6.43
2024-02-02T11:17:04.548Z,6.46
2024-02-02T11:18:04.675Z,6.43
2024-02-02T11:19:04.576Z,6.43
2024-02-02T11:20:04.521Z,6.48
2024-02-02T11:21:04.530Z,6.46
2024-02-02T11:22:04.483Z,6.51
2024-02-02T11:23:04.493Z,6.48
2024-02-02T11:24:04.516Z,6.48
2024-02-02T11:25:04.511Z,6.54
2024-02-02T11:26:04.442Z,6.52
2024-02-02T11:27:04.468Z,6.54
2024-02-02T11:28:04.436Z,6.54
2024-02-02T11:29:04.417Z,6.54
2024-02-02T11:30:04.398Z,6.55
2024-02-02T11:31:04.381Z,6.52
2024-02-02T11:32:04.363Z,6.51
2024-02-02T11:33:04.653Z,6.52
2024-02-02T11:34:04.396Z,6.55
2024-02-02T11:35:04.387Z,6.58
2024-02-02T11:36:04.354Z,6.62
2024-02-02T11:37:04.318Z,6.61
2024-02-02T11:38:04.320Z,6.59
2024-02-02T11:39:04.311Z,6.62
2024-02-02T11:40:04.304Z,6.64
2024-02-02T11:41:04.295Z,6.67
2024-02-02T11:42:04.320Z,6.62
2024-02-02T11:43:04.260Z,6.61
2024-02-02T11:44:04.261Z,6.58
2024-02-02T11:45:04.266Z,6.55
2024-02-02T11:46:05.506Z,6.55
2024-02-02T11:47:04.240Z,6.55
2024-02-02T11:48:04.376Z,6.52
2024-02-02T11:49:04.330Z,6.54
2024-02-02T11:50:04.267Z,6.54
2024-02-02T11:51:04.258Z,6.59
2024-02-02T11:52:04.149Z,6.59
2024-02-02T11:53:04.136Z,6.62
2024-02-02T11:54:04.377Z,6.66
2024-02-02T11:55:04.423Z,6.70
2024-02-02T11:56:04.115Z,6.74
2024-02-02T11:57:04.143Z,6.77
2024-02-02T11:58:04.099Z,6.71
2024-02-02T11:59:04.078Z,6.73
2024-02-02T12:00:04.199Z,6.73
2024-02-02T12:01:04.123Z,6.74
2024-02-02T12:02:04.122Z,6.77
2024-02-02T12:03:04.129Z,6.79
2024-02-02T12:04:04.030Z,6.73
2024-02-02T12:05:04.099Z,6.71
2024-02-02T12:06:04.055Z,6.73
2024-02-02T12:07:04.131Z,6.74
2024-02-02T12:08:03.982Z,6.73
2024-02-02T12:09:04.030Z,6.71
2024-02-02T12:10:04.020Z,6.73
2024-02-02T12:11:03.959Z,6.73
2024-02-02T12:12:04.055Z,6.74
2024-02-02T12:13:04.002Z,6.74
2024-02-02T12:14:03.939Z,6.76
2024-02-02T12:15:04.011Z,6.73
2024-02-02T12:16:03.936Z,6.69
2024-02-02T12:17:03.881Z,6.67
2024-02-02T12:18:04.601Z,6.69
2024-02-02T12:19:03.997Z,6.64
2024-02-02T12:20:04.020Z,6.67
2024-02-02T12:21:03.901Z,6.66
2024-02-02T12:22:03.842Z,6.64
2024-02-02T12:23:03.866Z,6.59
2024-02-02T12:24:03.844Z,6.59
2024-02-02T12:25:03.824Z,6.55
2024-02-02T12:26:03.834Z,6.61
2024-02-02T12:27:03.797Z,6.61
2024-02-02T12:28:03.776Z,6.64
2024-02-02T12:29:03.801Z,6.66
2024-02-02T12:30:03.782Z,6.64
2024-02-02T12:31:03.745Z,6.66
2024-02-02T12:32:03.723Z,6.66
2024-02-02T12:33:03.838Z,6.67
2024-02-02T12:34:03.914Z,6.62
2024-02-02T12:35:03.787Z,6.66
2024-02-02T12:36:09.836Z,6.69
2024-02-02T12:37:03.731Z,6.67
2024-02-02T12:38:03.668Z,6.66
2024-02-02T12:39:03.715Z,6.67
2024-02-02T12:40:03.652Z,6.64
2024-02-02T12:41:03.637Z,6.64
2024-02-02T12:42:04.763Z,6.66
2024-02-02T12:43:03.606Z,6.67
2024-02-02T12:44:03.705Z,6.67
2024-02-02T12:45:03.664Z,6.67
2024-02-02T12:46:03.596Z,6.67
2024-02-02T12:47:03.580Z,6.67
2024-02-02T12:48:03.687Z,6.67
2024-02-02T12:49:03.665Z,6.67
2024-02-02T12:50:03.751Z,6.66
2024-02-02T12:51:03.567Z,6.64
2024-02-02T12:52:03.531Z,6.62
2024-02-02T12:53:03.511Z,6.62
2024-02-02T12:54:03.587Z,6.62
2024-02-02T12:55:03.567Z,6.62
2024-02-02T12:56:03.491Z,6.61
2024-02-02T12:57:03.549Z,6.56
2024-02-02T12:58:03.490Z,6.55
2024-02-02T12:59:03.490Z,6.54
2024-02-02T13:00:03.479Z,6.52
2024-02-02T13:01:03.575Z,6.54
2024-02-02T13:02:03.432Z,6.54
2024-02-02T13:03:03.430Z,6.52
2024-02-02T13:04:03.471Z,6.55
2024-02-02T13:05:03.453Z,6.55
2024-02-02T13:06:03.446Z,6.54
2024-02-02T13:07:03.453Z,6.54
2024-02-02T13:08:03.345Z,6.55
2024-02-02T13:09:03.417Z,6.54
2024-02-02T13:10:03.380Z,6.56
2024-02-02T13:11:03.336Z,6.58
2024-02-02T13:12:03.960Z,6.56
2024-02-02T13:13:03.316Z,6.54
2024-02-02T13:14:03.282Z,6.52
2024-02-02T13:15:03.290Z,6.52
2024-02-02T13:16:03.304Z,6.54
2024-02-02T13:17:03.259Z,6.54
2024-02-02T13:18:03.347Z,6.52